sensor_id;sensor_type;location;lat;lon;timestamp;P1;durP1;ratioP1;P2;durP2;ratioP2
33864;SDS011;20159;51.072;13.526;2023-04-03T00:00:28;4.65;;;2.25;;
33864;SDS011;20159;51.072;13.526;2023-04-03T00:02:54;2.75;;;1.70;;
33864;SDS011;20159;51.072;13.526;2023-04-03T00:05:20;4.93;;;2.15;;
33864;SDS011;20159;51.072;13.526;2023-04-03T00:07:46;5.05;;;2.38;;
33864;SDS011;20159;51.072;13.526;2023-04-03T00:10:11;4.47;;;2.00;;
33864;SDS011;20159;51.072;13.526;2023-04-03T00:12:37;4.68;;;2.15;;
33864;SDS011;20159;51.072;13.526;2023-04-03T00:15:02;4.32;;;2.20;;
33864;SDS011;20159;51.072;13.526;2023-04-03T00:17:28;4.57;;;2.35;;
33864;SDS011;20159;51.072;13.526;2023-04-03T00:19:54;3.42;;;2.17;;
33864;SDS011;20159;51.072;13.526;2023-04-03T00:22:20;3.40;;;1.98;;
33864;SDS011;20159;51.072;13.526;2023-04-03T00:24:45;3.55;;;1.98;;
33864;SDS011;20159;51.072;13.526;2023-04-03T00:27:10;6.03;;;2.30;;
33864;SDS011;20159;51.072;13.526;2023-04-03T00:29:36;3.65;;;2.20;;
33864;SDS011;20159;51.072;13.526;2023-04-03T00:32:01;3.55;;;2.05;;
33864;SDS011;20159;51.072;13.526;2023-04-03T00:34:27;3.97;;;2.38;;
33864;SDS011;20159;51.072;13.526;2023-04-03T00:36:53;6.32;;;2.63;;
33864;SDS011;20159;51.072;13.526;2023-04-03T00:39:18;5.53;;;2.35;;
33864;SDS011;20159;51.072;13.526;2023-04-03T00:41:44;3.60;;;2.28;;
33864;SDS011;20159;51.072;13.526;2023-04-03T00:44:19;3.47;;;2.22;;
33864;SDS011;20159;51.072;13.526;2023-04-03T00:47:09;5.88;;;2.38;;
33864;SDS011;20159;51.072;13.526;2023-04-03T00:49:37;5.57;;;2.72;;
33864;SDS011;20159;51.072;13.526;2023-04-03T00:52:05;6.95;;;2.63;;
33864;SDS011;20159;51.072;13.526;2023-04-03T00:54:34;4.60;;;2.60;;
33864;SDS011;20159;51.072;13.526;2023-04-03T00:57:02;6.15;;;2.20;;
33864;SDS011;20159;51.072;13.526;2023-04-03T00:59:31;7.95;;;2.53;;
33864;SDS011;20159;51.072;13.526;2023-04-03T01:02:00;4.00;;;2.05;;
33864;SDS011;20159;51.072;13.526;2023-04-03T01:06:57;7.15;;;2.67;;
33864;SDS011;20159;51.072;13.526;2023-04-03T01:09:29;4.68;;;2.53;;
33864;SDS011;20159;51.072;13.526;2023-04-03T01:12:12;3.70;;;2.03;;
33864;SDS011;20159;51.072;13.526;2023-04-03T01:14:42;5.28;;;2.22;;
33864;SDS011;20159;51.072;13.526;2023-04-03T01:17:26;4.63;;;2.25;;
33864;SDS011;20159;51.072;13.526;2023-04-03T01:22:42;7.72;;;2.30;;
33864;SDS011;20159;51.072;13.526;2023-04-03T01:25:30;4.47;;;2.30;;
33864;SDS011;20159;51.072;13.526;2023-04-03T01:28:01;4.05;;;2.20;;
33864;SDS011;20159;51.072;13.526;2023-04-03T01:30:31;5.75;;;2.63;;
33864;SDS011;20159;51.072;13.526;2023-04-03T01:32:59;4.75;;;2.42;;
33864;SDS011;20159;51.072;13.526;2023-04-03T01:35:25;5.38;;;2.55;;
33864;SDS011;20159;51.072;13.526;2023-04-03T01:37:50;12.07;;;2.83;;
33864;SDS011;20159;51.072;13.526;2023-04-03T01:40:16;4.47;;;2.25;;
33864;SDS011;20159;51.072;13.526;2023-04-03T01:42:41;4.78;;;2.25;;
33864;SDS011;20159;51.072;13.526;2023-04-03T01:45:07;3.67;;;2.38;;
33864;SDS011;20159;51.072;13.526;2023-04-03T01:47:33;6.60;;;2.70;;
33864;SDS011;20159;51.072;13.526;2023-04-03T01:49:58;8.75;;;2.63;;
33864;SDS011;20159;51.072;13.526;2023-04-03T01:52:24;4.75;;;2.38;;
33864;SDS011;20159;51.072;13.526;2023-04-03T01:54:49;6.72;;;2.67;;
33864;SDS011;20159;51.072;13.526;2023-04-03T01:57:15;5.50;;;2.83;;
33864;SDS011;20159;51.072;13.526;2023-04-03T01:59:41;4.95;;;2.67;;
33864;SDS011;20159;51.072;13.526;2023-04-03T02:02:07;5.25;;;2.60;;
33864;SDS011;20159;51.072;13.526;2023-04-03T02:04:32;12.43;;;2.50;;
33864;SDS011;20159;51.072;13.526;2023-04-03T02:06:58;4.63;;;2.30;;
33864;SDS011;20159;51.072;13.526;2023-04-03T02:09:23;4.03;;;2.33;;
33864;SDS011;20159;51.072;13.526;2023-04-03T02:11:49;5.28;;;2.70;;
33864;SDS011;20159;51.072;13.526;2023-04-03T02:14:15;4.30;;;2.47;;
33864;SDS011;20159;51.072;13.526;2023-04-03T02:16:40;8.20;;;3.08;;
33864;SDS011;20159;51.072;13.526;2023-04-03T02:19:06;4.47;;;2.50;;
33864;SDS011;20159;51.072;13.526;2023-04-03T02:21:31;4.53;;;2.30;;
33864;SDS011;20159;51.072;13.526;2023-04-03T02:23:57;4.45;;;2.17;;
33864;SDS011;20159;51.072;13.526;2023-04-03T02:26:22;5.25;;;2.42;;
33864;SDS011;20159;51.072;13.526;2023-04-03T02:28:48;4.13;;;2.75;;
33864;SDS011;20159;51.072;13.526;2023-04-03T02:31:13;6.07;;;2.67;;
33864;SDS011;20159;51.072;13.526;2023-04-03T02:33:39;5.10;;;2.40;;
33864;SDS011;20159;51.072;13.526;2023-04-03T02:36:05;6.00;;;2.70;;
33864;SDS011;20159;51.072;13.526;2023-04-03T02:38:31;5.28;;;2.63;;
33864;SDS011;20159;51.072;13.526;2023-04-03T02:41:01;5.90;;;2.80;;
33864;SDS011;20159;51.072;13.526;2023-04-03T02:43:28;4.88;;;2.40;;
33864;SDS011;20159;51.072;13.526;2023-04-03T02:45:53;5.68;;;2.40;;
33864;SDS011;20159;51.072;13.526;2023-04-03T02:48:18;3.88;;;2.33;;
33864;SDS011;20159;51.072;13.526;2023-04-03T02:50:44;4.97;;;2.15;;
33864;SDS011;20159;51.072;13.526;2023-04-03T02:53:10;4.10;;;2.80;;
33864;SDS011;20159;51.072;13.526;2023-04-03T02:55:35;5.20;;;2.75;;
33864;SDS011;20159;51.072;13.526;2023-04-03T02:58:01;4.22;;;2.40;;
33864;SDS011;20159;51.072;13.526;2023-04-03T03:00:26;5.70;;;2.78;;
33864;SDS011;20159;51.072;13.526;2023-04-03T03:02:52;5.53;;;3.03;;
33864;SDS011;20159;51.072;13.526;2023-04-03T03:05:17;6.28;;;3.25;;
33864;SDS011;20159;51.072;13.526;2023-04-03T03:07:43;7.32;;;3.15;;
33864;SDS011;20159;51.072;13.526;2023-04-03T03:10:08;4.55;;;2.75;;
33864;SDS011;20159;51.072;13.526;2023-04-03T03:12:34;6.05;;;2.88;;
33864;SDS011;20159;51.072;13.526;2023-04-03T03:15:00;5.22;;;2.78;;
33864;SDS011;20159;51.072;13.526;2023-04-03T03:17:25;7.38;;;2.90;;
33864;SDS011;20159;51.072;13.526;2023-04-03T03:19:51;4.45;;;2.85;;
33864;SDS011;20159;51.072;13.526;2023-04-03T03:22:16;5.22;;;2.42;;
33864;SDS011;20159;51.072;13.526;2023-04-03T03:24:42;4.88;;;2.65;;
33864;SDS011;20159;51.072;13.526;2023-04-03T03:27:07;4.50;;;2.75;;
33864;SDS011;20159;51.072;13.526;2023-04-03T03:29:33;4.65;;;2.63;;
33864;SDS011;20159;51.072;13.526;2023-04-03T03:31:58;5.05;;;2.50;;
33864;SDS011;20159;51.072;13.526;2023-04-03T03:34:24;6.22;;;2.90;;
33864;SDS011;20159;51.072;13.526;2023-04-03T03:36:50;7.75;;;3.20;;
33864;SDS011;20159;51.072;13.526;2023-04-03T03:39:15;5.55;;;3.10;;
33864;SDS011;20159;51.072;13.526;2023-04-03T03:41:41;4.93;;;2.72;;
33864;SDS011;20159;51.072;13.526;2023-04-03T03:44:07;5.63;;;3.17;;
33864;SDS011;20159;51.072;13.526;2023-04-03T03:46:32;6.20;;;2.97;;
33864;SDS011;20159;51.072;13.526;2023-04-03T03:48:58;7.38;;;2.63;;
33864;SDS011;20159;51.072;13.526;2023-04-03T03:51:24;6.10;;;2.92;;
33864;SDS011;20159;51.072;13.526;2023-04-03T03:53:49;4.50;;;3.17;;
33864;SDS011;20159;51.072;13.526;2023-04-03T03:56:15;5.60;;;3.20;;
33864;SDS011;20159;51.072;13.526;2023-04-03T03:58:40;6.25;;;2.92;;
33864;SDS011;20159;51.072;13.526;2023-04-03T04:01:06;5.15;;;2.58;;
33864;SDS011;20159;51.072;13.526;2023-04-03T04:03:32;10.75;;;3.47;;
33864;SDS011;20159;51.072;13.526;2023-04-03T04:05:57;6.38;;;2.85;;
33864;SDS011;20159;51.072;13.526;2023-04-03T04:08:23;7.20;;;3.38;;
33864;SDS011;20159;51.072;13.526;2023-04-03T04:10:49;7.50;;;3.33;;
33864;SDS011;20159;51.072;13.526;2023-04-03T04:13:14;7.78;;;3.15;;
33864;SDS011;20159;51.072;13.526;2023-04-03T04:15:40;5.82;;;3.17;;
33864;SDS011;20159;51.072;13.526;2023-04-03T04:18:06;10.45;;;3.15;;
33864;SDS011;20159;51.072;13.526;2023-04-03T04:20:31;8.73;;;3.35;;
33864;SDS011;20159;51.072;13.526;2023-04-03T04:22:57;6.90;;;2.88;;
33864;SDS011;20159;51.072;13.526;2023-04-03T04:25:22;6.18;;;3.20;;
33864;SDS011;20159;51.072;13.526;2023-04-03T04:27:48;5.78;;;2.80;;
33864;SDS011;20159;51.072;13.526;2023-04-03T04:30:13;5.95;;;3.58;;
33864;SDS011;20159;51.072;13.526;2023-04-03T04:32:39;9.40;;;5.85;;
33864;SDS011;20159;51.072;13.526;2023-04-03T04:35:04;10.88;;;7.28;;
33864;SDS011;20159;51.072;13.526;2023-04-03T04:37:30;9.95;;;6.07;;
33864;SDS011;20159;51.072;13.526;2023-04-03T04:39:56;8.50;;;4.85;;
33864;SDS011;20159;51.072;13.526;2023-04-03T04:42:21;9.52;;;4.35;;
33864;SDS011;20159;51.072;13.526;2023-04-03T04:44:47;8.70;;;5.40;;
33864;SDS011;20159;51.072;13.526;2023-04-03T04:47:12;12.25;;;5.15;;
33864;SDS011;20159;51.072;13.526;2023-04-03T04:49:38;11.18;;;5.65;;
33864;SDS011;20159;51.072;13.526;2023-04-03T04:52:03;10.57;;;4.10;;
33864;SDS011;20159;51.072;13.526;2023-04-03T04:54:29;7.30;;;3.90;;
33864;SDS011;20159;51.072;13.526;2023-04-03T04:56:54;7.82;;;3.90;;
33864;SDS011;20159;51.072;13.526;2023-04-03T04:59:20;6.90;;;3.28;;
33864;SDS011;20159;51.072;13.526;2023-04-03T05:01:45;10.05;;;4.03;;
33864;SDS011;20159;51.072;13.526;2023-04-03T05:04:11;5.28;;;3.20;;
33864;SDS011;20159;51.072;13.526;2023-04-03T05:06:37;7.18;;;3.22;;
33864;SDS011;20159;51.072;13.526;2023-04-03T05:09:03;9.15;;;3.70;;
33864;SDS011;20159;51.072;13.526;2023-04-03T05:11:29;5.03;;;2.95;;
33864;SDS011;20159;51.072;13.526;2023-04-03T05:13:54;7.38;;;3.17;;
33864;SDS011;20159;51.072;13.526;2023-04-03T05:16:20;9.00;;;6.15;;
33864;SDS011;20159;51.072;13.526;2023-04-03T05:18:45;12.38;;;9.95;;
33864;SDS011;20159;51.072;13.526;2023-04-03T05:21:11;10.85;;;6.32;;
33864;SDS011;20159;51.072;13.526;2023-04-03T05:23:36;106.95;;;83.57;;
33864;SDS011;20159;51.072;13.526;2023-04-03T05:26:02;147.65;;;127.18;;
33864;SDS011;20159;51.072;13.526;2023-04-03T05:28:28;105.65;;;94.78;;
33864;SDS011;20159;51.072;13.526;2023-04-03T05:30:57;30.17;;;27.15;;
33864;SDS011;20159;51.072;13.526;2023-04-03T05:33:23;12.27;;;10.88;;
33864;SDS011;20159;51.072;13.526;2023-04-03T05:35:51;7.88;;;6.03;;
33864;SDS011;20159;51.072;13.526;2023-04-03T05:38:17;8.45;;;4.55;;
33864;SDS011;20159;51.072;13.526;2023-04-03T05:40:42;7.40;;;3.90;;
33864;SDS011;20159;51.072;13.526;2023-04-03T05:43:08;8.18;;;3.40;;
33864;SDS011;20159;51.072;13.526;2023-04-03T05:45:34;9.00;;;5.40;;
33864;SDS011;20159;51.072;13.526;2023-04-03T05:47:59;7.90;;;3.97;;
33864;SDS011;20159;51.072;13.526;2023-04-03T05:50:25;9.65;;;4.40;;
33864;SDS011;20159;51.072;13.526;2023-04-03T05:52:50;8.13;;;4.82;;
33864;SDS011;20159;51.072;13.526;2023-04-03T05:55:20;7.43;;;4.32;;
33864;SDS011;20159;51.072;13.526;2023-04-03T05:57:45;21.92;;;13.70;;
33864;SDS011;20159;51.072;13.526;2023-04-03T06:00:12;11.38;;;7.20;;
33864;SDS011;20159;51.072;13.526;2023-04-03T06:02:40;9.35;;;4.85;;
33864;SDS011;20159;51.072;13.526;2023-04-03T06:05:07;6.30;;;4.65;;
33864;SDS011;20159;51.072;13.526;2023-04-03T06:07:34;8.88;;;5.20;;
33864;SDS011;20159;51.072;13.526;2023-04-03T06:10:00;7.25;;;4.35;;
33864;SDS011;20159;51.072;13.526;2023-04-03T06:12:26;5.18;;;3.08;;
33864;SDS011;20159;51.072;13.526;2023-04-03T06:14:54;8.52;;;4.38;;
33864;SDS011;20159;51.072;13.526;2023-04-03T06:17:19;6.28;;;4.63;;
33864;SDS011;20159;51.072;13.526;2023-04-03T06:19:45;12.07;;;7.68;;
33864;SDS011;20159;51.072;13.526;2023-04-03T06:22:11;7.35;;;5.55;;
33864;SDS011;20159;51.072;13.526;2023-04-03T06:24:37;6.28;;;3.30;;
33864;SDS011;20159;51.072;13.526;2023-04-03T06:27:03;8.40;;;4.88;;
33864;SDS011;20159;51.072;13.526;2023-04-03T06:29:28;8.68;;;6.15;;
33864;SDS011;20159;51.072;13.526;2023-04-03T06:31:54;7.25;;;3.53;;
33864;SDS011;20159;51.072;13.526;2023-04-03T06:34:20;12.38;;;4.35;;
33864;SDS011;20159;51.072;13.526;2023-04-03T06:36:46;11.10;;;7.18;;
33864;SDS011;20159;51.072;13.526;2023-04-03T06:39:13;10.05;;;4.88;;
33864;SDS011;20159;51.072;13.526;2023-04-03T06:41:41;10.63;;;5.80;;
33864;SDS011;20159;51.072;13.526;2023-04-03T06:44:07;7.32;;;4.63;;
33864;SDS011;20159;51.072;13.526;2023-04-03T06:46:36;8.57;;;3.97;;
33864;SDS011;20159;51.072;13.526;2023-04-03T06:49:03;8.38;;;5.30;;
33864;SDS011;20159;51.072;13.526;2023-04-03T06:51:29;9.45;;;3.88;;
33864;SDS011;20159;51.072;13.526;2023-04-03T06:53:58;9.75;;;4.13;;
33864;SDS011;20159;51.072;13.526;2023-04-03T06:56:24;5.72;;;3.25;;
33864;SDS011;20159;51.072;13.526;2023-04-03T06:58:51;7.65;;;3.80;;
33864;SDS011;20159;51.072;13.526;2023-04-03T07:01:19;5.63;;;3.15;;
33864;SDS011;20159;51.072;13.526;2023-04-03T07:03:45;5.82;;;2.70;;
33864;SDS011;20159;51.072;13.526;2023-04-03T07:06:12;8.27;;;3.05;;
33864;SDS011;20159;51.072;13.526;2023-04-03T07:08:40;6.35;;;2.67;;
33864;SDS011;20159;51.072;13.526;2023-04-03T07:11:06;4.40;;;2.65;;
33864;SDS011;20159;51.072;13.526;2023-04-03T07:13:32;7.05;;;3.60;;
33864;SDS011;20159;51.072;13.526;2023-04-03T07:15:58;7.60;;;3.38;;
33864;SDS011;20159;51.072;13.526;2023-04-03T07:18:24;9.68;;;3.60;;
33864;SDS011;20159;51.072;13.526;2023-04-03T07:20:50;9.15;;;3.30;;
33864;SDS011;20159;51.072;13.526;2023-04-03T07:23:16;10.55;;;6.82;;
33864;SDS011;20159;51.072;13.526;2023-04-03T07:25:43;11.93;;;9.18;;
33864;SDS011;20159;51.072;13.526;2023-04-03T07:28:10;8.15;;;4.80;;
33864;SDS011;20159;51.072;13.526;2023-04-03T07:30:41;6.32;;;3.70;;
33864;SDS011;20159;51.072;13.526;2023-04-03T07:33:08;7.43;;;3.70;;
33864;SDS011;20159;51.072;13.526;2023-04-03T07:35:33;5.68;;;3.40;;
33864;SDS011;20159;51.072;13.526;2023-04-03T07:37:59;6.20;;;3.25;;
33864;SDS011;20159;51.072;13.526;2023-04-03T07:40:25;6.18;;;3.63;;
33864;SDS011;20159;51.072;13.526;2023-04-03T07:42:50;6.65;;;3.58;;
33864;SDS011;20159;51.072;13.526;2023-04-03T07:45:16;7.97;;;3.33;;
33864;SDS011;20159;51.072;13.526;2023-04-03T07:47:42;6.80;;;2.95;;
33864;SDS011;20159;51.072;13.526;2023-04-03T07:50:07;6.50;;;3.42;;
33864;SDS011;20159;51.072;13.526;2023-04-03T07:52:33;6.88;;;3.00;;
33864;SDS011;20159;51.072;13.526;2023-04-03T07:54:59;6.47;;;3.22;;
33864;SDS011;20159;51.072;13.526;2023-04-03T07:57:24;7.43;;;3.15;;
33864;SDS011;20159;51.072;13.526;2023-04-03T07:59:50;7.97;;;3.45;;
33864;SDS011;20159;51.072;13.526;2023-04-03T08:02:15;5.68;;;3.88;;
33864;SDS011;20159;51.072;13.526;2023-04-03T08:04:41;6.20;;;3.58;;
33864;SDS011;20159;51.072;13.526;2023-04-03T08:07:06;8.63;;;4.10;;
33864;SDS011;20159;51.072;13.526;2023-04-03T08:09:32;6.75;;;3.70;;
33864;SDS011;20159;51.072;13.526;2023-04-03T08:11:58;10.30;;;4.25;;
33864;SDS011;20159;51.072;13.526;2023-04-03T08:14:23;10.25;;;7.53;;
33864;SDS011;20159;51.072;13.526;2023-04-03T08:16:49;9.77;;;6.80;;
33864;SDS011;20159;51.072;13.526;2023-04-03T08:19:15;5.60;;;4.55;;
33864;SDS011;20159;51.072;13.526;2023-04-03T08:21:43;9.93;;;8.93;;
33864;SDS011;20159;51.072;13.526;2023-04-03T08:24:09;6.05;;;5.40;;
33864;SDS011;20159;51.072;13.526;2023-04-03T08:26:35;7.78;;;3.35;;
33864;SDS011;20159;51.072;13.526;2023-04-03T08:29:00;6.05;;;3.63;;
33864;SDS011;20159;51.072;13.526;2023-04-03T08:31:26;4.32;;;2.90;;
33864;SDS011;20159;51.072;13.526;2023-04-03T08:33:52;7.28;;;4.22;;
33864;SDS011;20159;51.072;13.526;2023-04-03T08:36:23;7.00;;;3.20;;
33864;SDS011;20159;51.072;13.526;2023-04-03T08:38:51;5.93;;;3.15;;
33864;SDS011;20159;51.072;13.526;2023-04-03T08:41:32;6.95;;;4.57;;
33864;SDS011;20159;51.072;13.526;2023-04-03T08:47:23;4.65;;;3.30;;
33864;SDS011;20159;51.072;13.526;2023-04-03T08:55:11;5.85;;;2.75;;
33864;SDS011;20159;51.072;13.526;2023-04-03T08:57:48;5.50;;;2.88;;
33864;SDS011;20159;51.072;13.526;2023-04-03T09:00:20;5.45;;;2.72;;
33864;SDS011;20159;51.072;13.526;2023-04-03T09:02:51;5.18;;;3.15;;
33864;SDS011;20159;51.072;13.526;2023-04-03T09:05:27;4.57;;;2.53;;
33864;SDS011;20159;51.072;13.526;2023-04-03T09:08:05;5.75;;;2.72;;
33864;SDS011;20159;51.072;13.526;2023-04-03T09:10:43;6.43;;;2.55;;
33864;SDS011;20159;51.072;13.526;2023-04-03T09:15:37;6.35;;;3.15;;
33864;SDS011;20159;51.072;13.526;2023-04-03T09:18:04;7.55;;;3.33;;
33864;SDS011;20159;51.072;13.526;2023-04-03T09:20:39;6.38;;;2.67;;
33864;SDS011;20159;51.072;13.526;2023-04-03T09:26:25;5.93;;;2.70;;
33864;SDS011;20159;51.072;13.526;2023-04-03T09:29:01;5.82;;;2.55;;
33864;SDS011;20159;51.072;13.526;2023-04-03T09:31:38;4.95;;;2.30;;
33864;SDS011;20159;51.072;13.526;2023-04-03T09:34:08;5.93;;;2.15;;
33864;SDS011;20159;51.072;13.526;2023-04-03T09:39:16;6.07;;;2.85;;
33864;SDS011;20159;51.072;13.526;2023-04-03T09:42:00;5.65;;;2.70;;
33864;SDS011;20159;51.072;13.526;2023-04-03T09:44:33;5.97;;;3.25;;
33864;SDS011;20159;51.072;13.526;2023-04-03T09:49:49;5.63;;;3.80;;
33864;SDS011;20159;51.072;13.526;2023-04-03T09:52:18;5.57;;;2.42;;
33864;SDS011;20159;51.072;13.526;2023-04-03T09:54:45;5.07;;;3.60;;
33864;SDS011;20159;51.072;13.526;2023-04-03T09:57:12;6.03;;;3.42;;
33864;SDS011;20159;51.072;13.526;2023-04-03T09:59:46;3.88;;;2.08;;
33864;SDS011;20159;51.072;13.526;2023-04-03T10:02:34;5.80;;;4.28;;
33864;SDS011;20159;51.072;13.526;2023-04-03T10:05:01;5.20;;;2.95;;
33864;SDS011;20159;51.072;13.526;2023-04-03T10:07:29;6.57;;;2.67;;
33864;SDS011;20159;51.072;13.526;2023-04-03T10:10:01;9.07;;;6.18;;
33864;SDS011;20159;51.072;13.526;2023-04-03T10:12:39;10.65;;;7.28;;
33864;SDS011;20159;51.072;13.526;2023-04-03T10:15:10;6.82;;;4.43;;
33864;SDS011;20159;51.072;13.526;2023-04-03T10:17:56;5.18;;;3.22;;
33864;SDS011;20159;51.072;13.526;2023-04-03T10:20:33;6.45;;;5.05;;
33864;SDS011;20159;51.072;13.526;2023-04-03T10:23:24;4.25;;;2.47;;
33864;SDS011;20159;51.072;13.526;2023-04-03T10:31:34;3.58;;;1.70;;
33864;SDS011;20159;51.072;13.526;2023-04-03T10:37:00;2.95;;;1.70;;
33864;SDS011;20159;51.072;13.526;2023-04-03T10:50:36;5.07;;;1.88;;
33864;SDS011;20159;51.072;13.526;2023-04-03T10:56:30;3.38;;;1.40;;
33864;SDS011;20159;51.072;13.526;2023-04-03T10:59:13;3.03;;;1.48;;
33864;SDS011;20159;51.072;13.526;2023-04-03T11:02:01;2.75;;;1.50;;
33864;SDS011;20159;51.072;13.526;2023-04-03T11:04:34;5.45;;;2.65;;
33864;SDS011;20159;51.072;13.526;2023-04-03T11:09:41;3.92;;;2.20;;
33864;SDS011;20159;51.072;13.526;2023-04-03T11:12:25;12.00;;;9.13;;
33864;SDS011;20159;51.072;13.526;2023-04-03T11:15:03;5.18;;;3.03;;
33864;SDS011;20159;51.072;13.526;2023-04-03T11:17:37;4.57;;;4.18;;
33864;SDS011;20159;51.072;13.526;2023-04-03T11:22:45;3.03;;;1.60;;
33864;SDS011;20159;51.072;13.526;2023-04-03T11:25:20;2.75;;;1.17;;
33864;SDS011;20159;51.072;13.526;2023-04-03T11:27:55;3.20;;;1.42;;
33864;SDS011;20159;51.072;13.526;2023-04-03T11:33:01;2.85;;;1.30;;
33864;SDS011;20159;51.072;13.526;2023-04-03T11:35:44;2.90;;;1.58;;
33864;SDS011;20159;51.072;13.526;2023-04-03T11:38:25;2.63;;;1.30;;
33864;SDS011;20159;51.072;13.526;2023-04-03T11:40:59;5.03;;;1.58;;
33864;SDS011;20159;51.072;13.526;2023-04-03T11:43:27;3.65;;;1.58;;
33864;SDS011;20159;51.072;13.526;2023-04-03T11:46:00;3.38;;;1.40;;
33864;SDS011;20159;51.072;13.526;2023-04-03T11:50:54;2.45;;;1.38;;
33864;SDS011;20159;51.072;13.526;2023-04-03T11:53:26;2.83;;;1.55;;
33864;SDS011;20159;51.072;13.526;2023-04-03T12:01:55;3.05;;;1.60;;
33864;SDS011;20159;51.072;13.526;2023-04-03T12:04:23;2.88;;;1.40;;
33864;SDS011;20159;51.072;13.526;2023-04-03T12:07:00;3.35;;;2.20;;
33864;SDS011;20159;51.072;13.526;2023-04-03T12:12:28;3.38;;;1.50;;
33864;SDS011;20159;51.072;13.526;2023-04-03T12:15:18;4.70;;;1.63;;
33864;SDS011;20159;51.072;13.526;2023-04-03T12:17:46;3.60;;;1.75;;
33864;SDS011;20159;51.072;13.526;2023-04-03T12:26:27;2.45;;;1.70;;
33864;SDS011;20159;51.072;13.526;2023-04-03T12:29:23;4.45;;;1.80;;
33864;SDS011;20159;51.072;13.526;2023-04-03T12:37:40;2.45;;;1.40;;
33864;SDS011;20159;51.072;13.526;2023-04-03T12:43:16;4.22;;;1.83;;
33864;SDS011;20159;51.072;13.526;2023-04-03T12:46:02;3.85;;;1.40;;
33864;SDS011;20159;51.072;13.526;2023-04-03T12:48:38;3.05;;;1.30;;
33864;SDS011;20159;51.072;13.526;2023-04-03T12:54:13;2.80;;;1.70;;
33864;SDS011;20159;51.072;13.526;2023-04-03T12:57:13;2.58;;;1.27;;
33864;SDS011;20159;51.072;13.526;2023-04-03T12:59:43;2.30;;;1.42;;
33864;SDS011;20159;51.072;13.526;2023-04-03T13:02:19;3.17;;;1.58;;
33864;SDS011;20159;51.072;13.526;2023-04-03T13:04:57;3.88;;;1.80;;
33864;SDS011;20159;51.072;13.526;2023-04-03T13:07:30;3.35;;;1.50;;
33864;SDS011;20159;51.072;13.526;2023-04-03T13:10:19;3.42;;;1.45;;
33864;SDS011;20159;51.072;13.526;2023-04-03T13:12:45;8.10;;;3.00;;
33864;SDS011;20159;51.072;13.526;2023-04-03T13:15:14;3.60;;;1.92;;
33864;SDS011;20159;51.072;13.526;2023-04-03T13:17:48;3.60;;;1.77;;
33864;SDS011;20159;51.072;13.526;2023-04-03T13:20:23;6.88;;;4.05;;
33864;SDS011;20159;51.072;13.526;2023-04-03T13:25:23;3.42;;;2.10;;
33864;SDS011;20159;51.072;13.526;2023-04-03T13:27:50;3.78;;;1.50;;
33864;SDS011;20159;51.072;13.526;2023-04-03T13:30:24;2.97;;;1.70;;
33864;SDS011;20159;51.072;13.526;2023-04-03T13:32:51;4.28;;;1.77;;
33864;SDS011;20159;51.072;13.526;2023-04-03T13:35:33;3.17;;;1.70;;
33864;SDS011;20159;51.072;13.526;2023-04-03T13:38:06;3.28;;;1.60;;
33864;SDS011;20159;51.072;13.526;2023-04-03T13:40:51;3.35;;;1.90;;
33864;SDS011;20159;51.072;13.526;2023-04-03T13:43:19;3.70;;;1.52;;
33864;SDS011;20159;51.072;13.526;2023-04-03T13:45:54;4.35;;;1.90;;
33864;SDS011;20159;51.072;13.526;2023-04-03T13:48:46;6.45;;;3.85;;
33864;SDS011;20159;51.072;13.526;2023-04-03T13:53:53;6.93;;;3.65;;
33864;SDS011;20159;51.072;13.526;2023-04-03T14:01:41;3.78;;;2.50;;
33864;SDS011;20159;51.072;13.526;2023-04-03T14:04:15;13.18;;;11.85;;
33864;SDS011;20159;51.072;13.526;2023-04-03T14:06:46;14.90;;;13.65;;
33864;SDS011;20159;51.072;13.526;2023-04-03T14:09:14;15.10;;;13.77;;
33864;SDS011;20159;51.072;13.526;2023-04-03T14:11:40;8.20;;;7.45;;
33864;SDS011;20159;51.072;13.526;2023-04-03T14:14:11;5.82;;;4.03;;
33864;SDS011;20159;51.072;13.526;2023-04-03T14:16:41;4.15;;;3.38;;
33864;SDS011;20159;51.072;13.526;2023-04-03T14:19:19;3.08;;;2.10;;
33864;SDS011;20159;51.072;13.526;2023-04-03T14:21:55;2.80;;;1.77;;
33864;SDS011;20159;51.072;13.526;2023-04-03T14:24:21;4.65;;;2.55;;
33864;SDS011;20159;51.072;13.526;2023-04-03T14:26:48;3.97;;;1.60;;
33864;SDS011;20159;51.072;13.526;2023-04-03T14:29:15;4.88;;;2.20;;
33864;SDS011;20159;51.072;13.526;2023-04-03T14:31:42;3.22;;;1.77;;
33864;SDS011;20159;51.072;13.526;2023-04-03T14:34:10;3.13;;;1.63;;
33864;SDS011;20159;51.072;13.526;2023-04-03T14:36:37;2.67;;;1.80;;
33864;SDS011;20159;51.072;13.526;2023-04-03T14:39:04;2.95;;;1.48;;
33864;SDS011;20159;51.072;13.526;2023-04-03T14:41:33;3.58;;;1.67;;
33864;SDS011;20159;51.072;13.526;2023-04-03T14:43:59;4.45;;;1.70;;
33864;SDS011;20159;51.072;13.526;2023-04-03T14:46:29;4.72;;;1.80;;
33864;SDS011;20159;51.072;13.526;2023-04-03T14:48:57;2.40;;;1.52;;
33864;SDS011;20159;51.072;13.526;2023-04-03T14:51:23;3.83;;;1.77;;
33864;SDS011;20159;51.072;13.526;2023-04-03T14:53:49;2.85;;;1.50;;
33864;SDS011;20159;51.072;13.526;2023-04-03T14:56:23;2.92;;;1.40;;
33864;SDS011;20159;51.072;13.526;2023-04-03T14:58:54;2.47;;;1.60;;
33864;SDS011;20159;51.072;13.526;2023-04-03T15:01:22;3.95;;;1.85;;
33864;SDS011;20159;51.072;13.526;2023-04-03T15:03:47;3.85;;;1.63;;
33864;SDS011;20159;51.072;13.526;2023-04-03T15:06:13;2.72;;;1.50;;
33864;SDS011;20159;51.072;13.526;2023-04-03T15:08:40;3.03;;;1.52;;
33864;SDS011;20159;51.072;13.526;2023-04-03T15:11:07;3.17;;;1.55;;
33864;SDS011;20159;51.072;13.526;2023-04-03T15:13:33;5.63;;;3.75;;
33864;SDS011;20159;51.072;13.526;2023-04-03T15:15:59;4.22;;;2.50;;
33864;SDS011;20159;51.072;13.526;2023-04-03T15:18:25;3.03;;;1.80;;
33864;SDS011;20159;51.072;13.526;2023-04-03T15:20:53;4.05;;;1.98;;
33864;SDS011;20159;51.072;13.526;2023-04-03T15:23:19;3.90;;;1.95;;
33864;SDS011;20159;51.072;13.526;2023-04-03T15:25:46;3.35;;;2.58;;
33864;SDS011;20159;51.072;13.526;2023-04-03T15:28:17;2.83;;;1.75;;
33864;SDS011;20159;51.072;13.526;2023-04-03T15:30:53;4.47;;;1.80;;
33864;SDS011;20159;51.072;13.526;2023-04-03T15:33:19;3.45;;;1.77;;
33864;SDS011;20159;51.072;13.526;2023-04-03T15:35:45;3.80;;;1.80;;
33864;SDS011;20159;51.072;13.526;2023-04-03T15:38:11;3.70;;;1.73;;
33864;SDS011;20159;51.072;13.526;2023-04-03T15:40:37;4.32;;;2.78;;
33864;SDS011;20159;51.072;13.526;2023-04-03T15:43:03;9.43;;;4.63;;
33864;SDS011;20159;51.072;13.526;2023-04-03T15:45:29;5.13;;;2.83;;
33864;SDS011;20159;51.072;13.526;2023-04-03T15:47:57;3.88;;;2.67;;
33864;SDS011;20159;51.072;13.526;2023-04-03T15:50:23;4.25;;;2.60;;
33864;SDS011;20159;51.072;13.526;2023-04-03T15:52:49;6.25;;;2.90;;
33864;SDS011;20159;51.072;13.526;2023-04-03T15:55:19;2.80;;;2.00;;
33864;SDS011;20159;51.072;13.526;2023-04-03T15:57:49;3.95;;;2.50;;
33864;SDS011;20159;51.072;13.526;2023-04-03T16:00:15;4.28;;;2.95;;
33864;SDS011;20159;51.072;13.526;2023-04-03T16:02:42;6.97;;;4.25;;
33864;SDS011;20159;51.072;13.526;2023-04-03T16:05:09;5.82;;;4.05;;
33864;SDS011;20159;51.072;13.526;2023-04-03T16:07:39;8.30;;;5.63;;
33864;SDS011;20159;51.072;13.526;2023-04-03T16:10:05;7.78;;;4.35;;
33864;SDS011;20159;51.072;13.526;2023-04-03T16:12:32;5.65;;;3.53;;
33864;SDS011;20159;51.072;13.526;2023-04-03T16:14:58;6.13;;;2.97;;
33864;SDS011;20159;51.072;13.526;2023-04-03T16:17:23;3.20;;;2.20;;